Time;durP1;ratioP1;P1;durP2;ratioP2;P2;SDS_P1;SDS_P2;PMS_P1;PMS_P2;Temp;Humidity;BMP_temperature;BMP_pressure;BME280_temperature;BME280_humidity;BME280_pressure;Samples;Min_cycle;Max_cycle;Signal;HPM_P1;HPM_P2
2023/01/19 00:00:28;;;;;;;;;;;;;;;19.76;41.44;99889.48;105970;1285;60487;-83
2023/01/19 00:02:54;;;;;;;;;;;;;;;19.75;41.36;99889.17;105969;1283;60620;-83
2023/01/19 00:05:20;;;;;;;;;;;;;;;19.75;41.60;99891.30;106031;1283;60796;-83
2023/01/19 00:07:46;;;;;;;;;;;;;;;19.75;41.45;99892.73;105978;1284;60465;-83
2023/01/19 00:10:11;;;;;;;;;;;;;;;19.75;41.40;99892.59;105989;1285;60508;-83
2023/01/19 00:12:37;;;;;;;;;;;;;;;19.75;41.44;99893.27;106057;1283;60455;-83
2023/01/19 00:15:02;;;;;;;;;;;;;;;19.75;41.49;99894.36;105961;1283;59449;-83
2023/01/19 00:17:28;;;;;;;;;;;;;;;19.75;41.48;99894.02;105975;1285;60451;-83
2023/01/19 00:19:53;;;;;;;;;;;;;;;19.75;41.42;99896.52;106014;1287;60443;-83
2023/01/19 00:22:20;;;;;;;;;;;;;;;19.75;41.44;99895.95;105984;1288;60418;-83
2023/01/19 00:24:45;;;;;;;;;;;;;;;19.75;41.37;99900.65;106032;1288;60531;-83
2023/01/19 00:27:11;;;;;;;;;;;;;;;19.75;41.48;99904.75;106042;1283;60436;-83
2023/01/19 00:29:36;;;;;;;;;;;;;;;19.75;41.55;99913.32;106032;1284;60465;-83
2023/01/19 00:32:02;;;;;;;;;;;;;;;19.74;41.51;99916.03;106040;1287;59333;-83
2023/01/19 00:34:35;;;;;;;;;;;;;;;19.74;41.50;99910.67;105985;1285;60426;-83
2023/01/19 00:37:10;;;;;;;;;;;;;;;19.74;41.45;99912.29;105985;1285;61622;-83
2023/01/19 00:39:35;;;;;;;;;;;;;;;19.74;41.47;99906.76;105967;1283;72428;-83
2023/01/19 00:44:45;;;;;;;;;;;;;;;19.74;41.58;99902.30;105991;1284;60480;-83
2023/01/19 00:47:11;;;;;;;;;;;;;;;19.74;41.47;99900.01;106052;1285;59402;-83
2023/01/19 00:49:36;;;;;;;;;;;;;;;19.74;41.55;99895.55;106046;1283;60472;-83
2023/01/19 00:52:02;;;;;;;;;;;;;;;19.74;41.49;99896.60;106022;1285;60367;-83
2023/01/19 00:54:27;;;;;;;;;;;;;;;19.73;41.49;99892.38;106005;1285;60376;-83
2023/01/19 00:56:53;;;;;;;;;;;;;;;19.73;41.57;99890.41;105924;1285;60742;-83
2023/01/19 00:59:18;;;;;;;;;;;;;;;19.73;41.46;99893.08;105980;1288;60632;-83
2023/01/19 01:01:44;;;;;;;;;;;;;;;19.74;41.46;99892.34;105916;1285;60482;-83
2023/01/19 01:04:12;;;;;;;;;;;;;;;19.73;41.45;99888.46;105969;1283;60535;-83
2023/01/19 01:06:38;;;;;;;;;;;;;;;19.73;41.58;99890.77;106058;1285;58342;-83
2023/01/19 01:09:10;;;;;;;;;;;;;;;19.73;41.55;99888.27;105951;1285;60551;-82
2023/01/19 01:11:38;;;;;;;;;;;;;;;19.73;41.42;99883.98;105967;1287;72576;-83
2023/01/19 01:14:04;;;;;;;;;;;;;;;19.73;41.54;99882.94;105982;1283;74794;-82
2023/01/19 01:16:29;;;;;;;;;;;;;;;19.72;41.52;99876.54;106057;1283;60503;-82
2023/01/19 01:18:56;;;;;;;;;;;;;;;19.73;41.41;99872.59;105942;1285;60556;-82
2023/01/19 01:21:22;;;;;;;;;;;;;;;19.73;41.37;99872.23;105956;1288;60478;-82
2023/01/19 01:23:48;;;;;;;;;;;;;;;19.73;41.36;99871.33;106059;1285;60551;-82
2023/01/19 01:26:14;;;;;;;;;;;;;;;19.73;41.31;99872.77;104612;1285;1790747;-83
2023/01/19 01:28:39;;;;;;;;;;;;;;;19.72;41.28;99874.95;106000;1283;59227;-83
2023/01/19 01:31:04;;;;;;;;;;;;;;;19.73;41.28;99874.39;105964;1285;61145;-83
2023/01/19 01:33:30;;;;;;;;;;;;;;;19.72;41.53;99875.48;105976;1285;60554;-83
2023/01/19 01:35:56;;;;;;;;;;;;;;;19.72;41.39;99877.10;106064;1284;60472;-83
2023/01/19 01:38:21;;;;;;;;;;;;;;;19.72;41.39;99875.34;106052;1283;60538;-83
2023/01/19 01:40:47;;;;;;;;;;;;;;;19.72;41.44;99877.50;105995;1285;59318;-83
2023/01/19 01:43:13;;;;;;;;;;;;;;;19.72;41.33;99872.16;106036;1286;60490;-83
2023/01/19 01:45:39;;;;;;;;;;;;;;;19.71;41.27;99871.80;106023;1285;60557;-83
2023/01/19 01:48:07;;;;;;;;;;;;;;;19.71;41.33;99865.39;106025;1283;60450;-83
2023/01/19 01:50:34;;;;;;;;;;;;;;;19.71;41.33;99865.55;106036;1283;60792;-83
2023/01/19 01:52:59;;;;;;;;;;;;;;;19.72;41.46;99863.05;105983;1283;60554;-83
2023/01/19 01:55:25;;;;;;;;;;;;;;;19.71;41.36;99860.05;106042;1285;60316;-83
2023/01/19 01:57:56;;;;;;;;;;;;;;;19.72;41.46;99857.53;105961;1284;60453;-82
2023/01/19 02:00:22;;;;;;;;;;;;;;;19.71;41.49;99855.95;105980;1283;60451;-82
2023/01/19 02:02:50;;;;;;;;;;;;;;;19.71;41.41;99857.03;106041;1283;60638;-83
2023/01/19 02:05:27;;;;;;;;;;;;;;;19.71;41.44;99856.47;105972;1285;73440;-82
2023/01/19 02:13:42;;;;;;;;;;;;;;;19.70;41.37;99843.89;106049;1285;60540;-83
2023/01/19 02:16:08;;;;;;;;;;;;;;;19.70;41.32;99844.57;106015;1285;72490;-82
2023/01/19 02:18:34;;;;;;;;;;;;;;;19.70;41.46;99841.95;105914;1285;60549;-82
2023/01/19 02:20:59;;;;;;;;;;;;;;;19.70;41.37;99841.39;106060;1285;60469;-82
2023/01/19 02:23:30;;;;;;;;;;;;;;;19.71;41.31;99842.78;105981;1285;60524;-82
2023/01/19 02:25:57;;;;;;;;;;;;;;;19.70;41.45;99845.33;105967;1285;72419;-82
2023/01/19 02:28:24;;;;;;;;;;;;;;;19.70;41.43;99843.75;106031;1283;60361;-82
2023/01/19 02:30:50;;;;;;;;;;;;;;;19.70;41.34;99840.88;106053;1283;60586;-82
2023/01/19 02:33:16;;;;;;;;;;;;;;;19.70;41.39;99838.56;105971;1285;60469;-82
2023/01/19 02:35:41;;;;;;;;;;;;;;;19.70;41.40;99839.30;105967;1283;60500;-82
2023/01/19 02:38:07;;;;;;;;;;;;;;;19.69;41.32;99836.48;105945;1283;60478;-83
2023/01/19 02:40:33;;;;;;;;;;;;;;;19.70;41.25;99838.77;105959;1288;60528;-82
2023/01/19 02:42:59;;;;;;;;;;;;;;;19.69;41.46;99835.59;106013;1283;60414;-83
2023/01/19 02:45:25;;;;;;;;;;;;;;;19.69;41.38;99837.01;106012;1283;60303;-83
2023/01/19 02:47:51;;;;;;;;;;;;;;;19.69;41.23;99843.60;105973;1288;60535;-82
2023/01/19 02:50:37;;;;;;;;;;;;;;;19.69;41.27;99837.91;105976;1283;60566;-82
2023/01/19 02:53:16;;;;;;;;;;;;;;;19.69;41.47;99834.02;105964;1285;60995;-82
2023/01/19 02:55:42;;;;;;;;;;;;;;;19.69;41.47;99843.99;105989;1284;61165;-82
2023/01/19 02:58:13;;;;;;;;;;;;;;;19.69;41.34;99848.11;105976;1285;59321;-82
2023/01/19 03:00:47;;;;;;;;;;;;;;;19.69;41.32;99850.05;106017;1283;73485;-83
2023/01/19 03:03:17;;;;;;;;;;;;;;;19.68;41.40;99850.11;105993;1283;60333;-83
2023/01/19 03:05:51;;;;;;;;;;;;;;;19.69;41.34;99840.97;106022;1285;60994;-83
2023/01/19 03:08:33;;;;;;;;;;;;;;;19.68;41.31;99840.49;106017;1286;72689;-82
2023/01/19 03:11:02;;;;;;;;;;;;;;;19.69;41.34;99838.50;106006;1283;73646;-82
2023/01/19 03:13:32;;;;;;;;;;;;;;;19.68;41.36;99837.63;106021;1284;60606;-82
2023/01/19 03:16:20;;;;;;;;;;;;;;;19.68;41.25;99838.36;105994;1283;59625;-82
2023/01/19 03:18:47;;;;;;;;;;;;;;;19.67;41.30;99837.86;106041;1285;73555;-82
2023/01/19 03:21:12;;;;;;;;;;;;;;;19.67;41.31;99844.30;105959;1285;72962;-82
2023/01/19 03:23:39;;;;;;;;;;;;;;;19.68;41.25;99850.14;105960;1286;60473;-83
2023/01/19 03:26:05;;;;;;;;;;;;;;;19.68;41.29;99845.85;106025;1286;60476;-83
2023/01/19 03:28:33;;;;;;;;;;;;;;;19.67;41.35;99841.81;105995;1285;60500;-82
2023/01/19 03:31:04;;;;;;;;;;;;;;;19.67;41.35;99843.76;105997;1283;73603;-82
2023/01/19 03:33:31;;;;;;;;;;;;;;;19.67;41.39;99843.77;106025;1285;61006;-82
2023/01/19 03:35:57;;;;;;;;;;;;;;;19.67;41.36;99849.68;105980;1285;60311;-82
2023/01/19 03:38:26;;;;;;;;;;;;;;;19.67;41.20;99856.86;105908;1284;73351;-82
2023/01/19 03:40:55;;;;;;;;;;;;;;;19.67;41.29;99855.42;105942;1283;74784;-82
2023/01/19 03:43:20;;;;;;;;;;;;;;;19.66;41.25;99852.07;106016;1285;60435;-82
2023/01/19 03:45:46;;;;;;;;;;;;;;;19.66;41.25;99855.27;105970;1285;60464;-82
2023/01/19 03:48:12;;;;;;;;;;;;;;;19.66;41.22;99857.43;105916;1285;60469;-82
2023/01/19 03:50:37;;;;;;;;;;;;;;;19.66;41.30;99861.17;105939;1288;60559;-82
2023/01/19 03:53:07;;;;;;;;;;;;;;;19.66;41.21;99862.11;105983;1285;60486;-83
2023/01/19 03:55:33;;;;;;;;;;;;;;;19.66;41.30;99855.69;106026;1287;60470;-83
2023/01/19 03:57:59;;;;;;;;;;;;;;;19.65;41.23;99863.05;105958;1283;59227;-83
2023/01/19 04:00:24;;;;;;;;;;;;;;;19.65;41.20;99858.92;106017;1285;60608;-83
2023/01/19 04:02:50;;;;;;;;;;;;;;;19.65;41.13;99855.02;105943;1285;59394;-83
2023/01/19 04:05:16;;;;;;;;;;;;;;;19.65;41.31;99860.23;106016;1287;60358;-83
2023/01/19 04:07:41;;;;;;;;;;;;;;;19.64;41.32;99863.47;105982;1288;60664;-83
2023/01/19 04:10:11;;;;;;;;;;;;;;;19.64;41.38;99863.84;106003;1288;60573;-83
2023/01/19 04:12:38;;;;;;;;;;;;;;;19.64;41.27;99868.12;106024;1287;73486;-83
2023/01/19 04:15:05;;;;;;;;;;;;;;;19.64;41.30;99869.92;105961;1288;73500;-82
2023/01/19 04:17:30;;;;;;;;;;;;;;;19.64;41.09;99867.80;106055;1283;60562;-82
2023/01/19 04:19:56;;;;;;;;;;;;;;;19.64;41.18;99870.11;106008;1283;60515;-83
2023/01/19 04:22:21;;;;;;;;;;;;;;;19.63;41.17;99871.77;105973;1288;60456;-84
2023/01/19 04:24:47;;;;;;;;;;;;;;;19.63;41.23;99877.66;105955;1283;60585;-83
2023/01/19 04:27:15;;;;;;;;;;;;;;;19.62;41.16;99873.42;105965;1285;60512;-83
2023/01/19 04:29:40;;;;;;;;;;;;;;;19.62;41.21;99872.19;105978;1285;60915;-83
2023/01/19 04:32:06;;;;;;;;;;;;;;;19.63;41.27;99879.33;105977;1283;60440;-83
2023/01/19 04:34:34;;;;;;;;;;;;;;;19.63;41.05;99885.21;105952;1288;60445;-83
2023/01/19 04:36:59;;;;;;;;;;;;;;;19.62;41.03;99876.69;105884;1288;60444;-83
2023/01/19 04:39:25;;;;;;;;;;;;;;;19.62;41.16;99873.45;106000;1283;60359;-83
2023/01/19 04:41:51;;;;;;;;;;;;;;;19.62;40.97;99873.11;106046;1283;59252;-83
2023/01/19 04:44:16;;;;;;;;;;;;;;;19.62;41.10;99872.27;105944;1285;60505;-83
2023/01/19 04:46:42;;;;;;;;;;;;;;;19.62;41.15;99871.36;105980;1288;60488;-83
2023/01/19 04:49:08;;;;;;;;;;;;;;;19.61;41.07;99874.42;106026;1286;60495;-83
2023/01/19 04:51:34;;;;;;;;;;;;;;;19.61;41.21;99879.45;105961;1283;60346;-83
2023/01/19 04:54:00;;;;;;;;;;;;;;;19.61;41.09;99878.55;106061;1284;60429;-83
2023/01/19 04:56:26;;;;;;;;;;;;;;;19.61;41.18;99883.88;105959;1288;60387;-83
2023/01/19 04:58:52;;;;;;;;;;;;;;;19.60;40.95;99886.44;106148;1286;60437;-83
2023/01/19 05:01:18;;;;;;;;;;;;;;;19.60;41.02;99891.27;106077;1282;60503;-83
2023/01/19 05:03:44;;;;;;;;;;;;;;;19.59;41.12;99890.58;106081;1286;60387;-83
2023/01/19 05:06:10;;;;;;;;;;;;;;;19.60;41.11;99894.15;106040;1283;60581;-84
2023/01/19 05:08:37;;;;;;;;;;;;;;;19.59;41.02;99896.67;105957;1284;60521;-83
2023/01/19 05:11:03;;;;;;;;;;;;;;;19.59;41.06;99893.96;105968;1288;60469;-83
2023/01/19 05:13:29;;;;;;;;;;;;;;;19.59;41.07;99893.27;106012;1288;60450;-83
2023/01/19 05:15:54;;;;;;;;;;;;;;;19.59;40.99;99893.67;105984;1285;60964;-83
2023/01/19 05:18:20;;;;;;;;;;;;;;;19.59;41.10;99898.70;105862;1283;60522;-83
2023/01/19 05:20:46;;;;;;;;;;;;;;;19.58;40.90;99895.14;105988;1283;60468;-83
2023/01/19 05:23:12;;;;;;;;;;;;;;;19.59;41.12;99894.73;106002;1288;60997;-84
2023/01/19 05:25:37;;;;;;;;;;;;;;;19.60;41.01;99898.77;106073;1287;60450;-83
2023/01/19 05:28:03;;;;;;;;;;;;;;;19.62;40.94;99901.35;106058;1283;60603;-83
2023/01/19 05:30:29;;;;;;;;;;;;;;;19.62;40.81;99896.16;106023;1283;73520;-82
2023/01/19 05:32:55;;;;;;;;;;;;;;;19.62;40.91;99893.98;106061;1287;61005;-81
2023/01/19 05:35:20;;;;;;;;;;;;;;;19.63;40.76;99898.73;106100;1283;60532;-82
2023/01/19 05:37:46;;;;;;;;;;;;;;;19.64;40.77;99902.95;106157;1282;60362;-82
2023/01/19 05:40:12;;;;;;;;;;;;;;;19.65;40.70;99915.86;105959;1289;60434;-82
2023/01/19 05:42:38;;;;;;;;;;;;;;;19.67;40.66;99917.32;106049;1282;60531;-82
2023/01/19 05:45:04;;;;;;;;;;;;;;;19.69;40.64;99921.86;106134;1283;74547;-83
2023/01/19 05:47:30;;;;;;;;;;;;;;;19.70;40.57;99924.23;105950;1282;60675;-82
2023/01/19 05:49:56;;;;;;;;;;;;;;;19.72;40.61;99932.68;106135;1283;60357;-82
2023/01/19 05:52:21;;;;;;;;;;;;;;;19.73;40.58;99943.41;106018;1290;60456;-83
2023/01/19 05:54:47;;;;;;;;;;;;;;;19.74;40.42;99942.81;106112;1286;59563;-82
2023/01/19 05:57:13;;;;;;;;;;;;;;;19.77;40.48;99937.60;106181;1283;60334;-83
2023/01/19 05:59:38;;;;;;;;;;;;;;;19.79;40.21;99936.03;106144;1282;60324;-83
2023/01/19 06:02:04;;;;;;;;;;;;;;;19.81;40.47;99931.45;106208;1282;58879;-81
2023/01/19 06:04:30;;;;;;;;;;;;;;;19.81;40.42;99943.77;106248;1282;59288;-82
2023/01/19 06:06:55;;;;;;;;;;;;;;;19.81;40.35;99953.91;106061;1284;60550;-83
2023/01/19 06:09:21;;;;;;;;;;;;;;;19.82;40.29;99954.23;106185;1285;60579;-82
2023/01/19 06:11:46;;;;;;;;;;;;;;;19.82;40.21;99955.30;106067;1286;61140;-83
2023/01/19 06:14:12;;;;;;;;;;;;;;;19.81;40.14;99957.30;106209;1283;60602;-82
2023/01/19 06:16:37;;;;;;;;;;;;;;;19.83;40.34;99968.61;106236;1282;60438;-82
2023/01/19 06:19:03;;;;;;;;;;;;;;;19.85;40.24;99967.89;106125;1288;60265;-82
2023/01/19 06:21:28;;;;;;;;;;;;;;;19.89;40.16;99971.15;106120;1287;60404;-82
2023/01/19 06:23:53;;;;;;;;;;;;;;;19.93;40.24;99970.62;105964;1285;59891;-82
2023/01/19 06:26:19;;;;;;;;;;;;;;;19.97;40.09;99975.39;106145;1283;60445;-82
2023/01/19 06:28:45;;;;;;;;;;;;;;;19.99;40.19;99977.33;106038;1282;60534;-81
2023/01/19 06:31:10;;;;;;;;;;;;;;;20.02;40.27;99975.26;106057;1284;61198;-80
2023/01/19 06:33:37;;;;;;;;;;;;;;;20.05;40.14;99972.71;106183;1282;60065;-81
2023/01/19 06:36:02;;;;;;;;;;;;;;;20.08;40.30;99970.86;106154;1283;61223;-81
2023/01/19 06:38:28;;;;;;;;;;;;;;;20.13;40.26;99974.59;106140;1282;59809;-82
2023/01/19 06:40:54;;;;;;;;;;;;;;;20.18;40.07;99975.48;106132;1282;61388;-82
2023/01/19 06:43:20;;;;;;;;;;;;;;;20.22;40.16;99977.86;106073;1282;61247;-82
2023/01/19 06:45:46;;;;;;;;;;;;;;;20.22;40.12;99982.11;106050;1282;60808;-83
2023/01/19 06:48:11;;;;;;;;;;;;;;;20.21;40.17;99979.89;106032;1284;61353;-83
2023/01/19 06:50:37;;;;;;;;;;;;;;;20.19;40.03;99978.77;106086;1284;59163;-83
2023/01/19 06:53:04;;;;;;;;;;;;;;;20.20;40.07;99987.11;106183;1285;61267;-83
2023/01/19 06:55:34;;;;;;;;;;;;;;;20.18;40.23;99989.09;106178;1282;75188;-83
2023/01/19 06:58:00;;;;;;;;;;;;;;;20.14;40.23;99981.34;106177;1283;62668;-83
2023/01/19 07:00:26;;;;;;;;;;;;;;;20.12;40.28;99981.34;106128;1282;61361;-83
2023/01/19 07:02:51;;;;;;;;;;;;;;;20.10;40.55;99980.91;106095;1287;59492;-83
2023/01/19 07:05:21;;;;;;;;;;;;;;;20.04;40.56;99981.58;106100;1283;74423;-83
2023/01/19 07:07:56;;;;;;;;;;;;;;;20.00;40.62;99976.59;106050;1282;61324;-83
2023/01/19 07:10:22;;;;;;;;;;;;;;;19.97;40.67;99978.89;106196;1282;61246;-83
2023/01/19 07:12:48;;;;;;;;;;;;;;;19.97;40.59;99983.73;106108;1288;61263;-82
2023/01/19 07:15:14;;;;;;;;;;;;;;;19.98;40.56;99986.90;106093;1282;61913;-81
2023/01/19 07:17:41;;;;;;;;;;;;;;;19.99;40.63;99989.86;106583;1283;59008;-82
2023/01/19 07:20:08;;;;;;;;;;;;;;;20.01;40.60;99977.91;106590;1284;59906;-82
2023/01/19 07:22:33;;;;;;;;;;;;;;;20.04;40.52;99975.67;106563;1283;58457;-82
2023/01/19 07:24:58;;;;;;;;;;;;;;;20.08;40.62;99973.21;106123;1282;61263;-80
2023/01/19 07:27:26;;;;;;;;;;;;;;;20.12;40.51;99969.90;106027;1282;61286;-82
2023/01/19 07:29:52;;;;;;;;;;;;;;;20.15;40.59;99966.98;105870;1283;61295;-83
2023/01/19 07:32:17;;;;;;;;;;;;;;;20.16;40.60;99960.93;106062;1282;59518;-83
2023/01/19 07:34:44;;;;;;;;;;;;;;;20.18;40.38;99952.40;106076;1282;61163;-82
2023/01/19 07:37:10;;;;;;;;;;;;;;;20.20;40.49;99949.20;106243;1282;61302;-82
2023/01/19 07:39:35;;;;;;;;;;;;;;;20.23;40.39;99948.96;106200;1283;61211;-82
2023/01/19 07:42:01;;;;;;;;;;;;;;;20.26;40.40;99950.71;106139;1283;59962;-82
2023/01/19 07:44:26;;;;;;;;;;;;;;;20.29;40.41;99948.52;106191;1283;60027;-83
2023/01/19 07:46:52;;;;;;;;;;;;;;;20.32;40.37;99957.76;106079;1283;61358;-84
2023/01/19 07:49:19;;;;;;;;;;;;;;;20.32;40.55;99963.07;106040;1282;59421;-84
2023/01/19 07:51:45;;;;;;;;;;;;;;;20.32;40.52;99965.05;105986;1282;61620;-84
2023/01/19 07:54:11;;;;;;;;;;;;;;;20.28;40.60;99964.35;105993;1282;61282;-85
2023/01/19 07:56:40;;;;;;;;;;;;;;;20.18;40.50;99959.36;106119;1282;61270;-83
2023/01/19 07:59:08;;;;;;;;;;;;;;;20.11;40.75;99958.54;106202;1283;59415;-82
2023/01/19 08:01:34;;;;;;;;;;;;;;;20.08;40.63;99967.34;106194;1282;61180;-84
2023/01/19 08:04:04;;;;;;;;;;;;;;;20.06;40.81;99967.13;106181;1286;61141;-83
2023/01/19 08:06:33;;;;;;;;;;;;;;;20.05;40.95;99976.51;106050;1284;73163;-83
2023/01/19 08:08:59;;;;;;;;;;;;;;;20.06;41.18;99974.31;106179;1282;61432;-83
2023/01/19 08:11:25;;;;;;;;;;;;;;;20.06;41.30;99979.28;106008;1282;61305;-84
2023/01/19 08:13:51;;;;;;;;;;;;;;;20.02;41.38;99977.83;106230;1282;59839;-83
2023/01/19 08:16:16;;;;;;;;;;;;;;;20.01;41.39;99981.11;106077;1282;61251;-83
2023/01/19 08:18:43;;;;;;;;;;;;;;;20.02;41.36;99980.48;106077;1282;59755;-83
2023/01/19 08:21:08;;;;;;;;;;;;;;;20.05;41.34;99981.30;106080;1282;59316;-82
2023/01/19 08:23:34;;;;;;;;;;;;;;;20.09;41.38;99985.61;106030;1287;59535;-82
2023/01/19 08:26:00;;;;;;;;;;;;;;;20.15;41.57;99988.20;106198;1285;59570;-84
2023/01/19 08:28:25;;;;;;;;;;;;;;;20.22;41.72;99990.34;106064;1287;75472;-84
2023/01/19 08:30:55;;;;;;;;;;;;;;;20.27;41.64;99992.63;106096;1282;60176;-83
2023/01/19 08:33:21;;;;;;;;;;;;;;;20.31;41.68;99996.80;106069;1284;61212;-82
2023/01/19 08:35:47;;;;;;;;;;;;;;;20.33;41.67;99996.80;106177;1282;71291;-83
2023/01/19 08:38:13;;;;;;;;;;;;;;;20.35;41.55;99997.16;106211;1283;61212;-83
2023/01/19 08:40:39;;;;;;;;;;;;;;;20.37;41.66;99999.32;106217;1282;61233;-84
2023/01/19 08:43:06;;;;;;;;;;;;;;;20.38;41.41;100001.52;106217;1282;61315;-82
2023/01/19 08:45:40;;;;;;;;;;;;;;;20.39;41.47;100000.59;106040;1282;59754;-83
2023/01/19 08:48:06;;;;;;;;;;;;;;;20.40;41.56;99997.80;105965;1282;74810;-83
2023/01/19 08:50:32;;;;;;;;;;;;;;;20.40;41.46;99997.05;106074;1282;59808;-82
2023/01/19 08:52:58;;;;;;;;;;;;;;;20.40;41.45;100000.48;106075;1282;61393;-82
2023/01/19 08:55:24;;;;;;;;;;;;;;;20.41;41.59;99992.57;106053;1288;61272;-82
2023/01/19 08:57:51;;;;;;;;;;;;;;;20.41;41.63;99997.94;106110;1282;61262;-82
2023/01/19 09:00:18;;;;;;;;;;;;;;;20.41;41.50;99988.10;106521;1282;60106;-83
2023/01/19 09:02:44;;;;;;;;;;;;;;;20.42;41.57;99988.89;106602;1282;59705;-83
2023/01/19 09:05:10;;;;;;;;;;;;;;;20.38;41.50;99979.36;106508;1284;59711;-83
2023/01/19 09:07:35;;;;;;;;;;;;;;;20.31;41.62;99976.58;106717;1282;60011;-82
2023/01/19 09:10:02;;;;;;;;;;;;;;;20.26;41.57;99976.04;106682;1282;59134;-82
2023/01/19 09:12:28;;;;;;;;;;;;;;;20.23;41.50;99983.77;106557;1282;59498;-82
2023/01/19 09:14:53;;;;;;;;;;;;;;;20.22;41.65;99980.83;106716;1282;59241;-81
2023/01/19 09:17:19;;;;;;;;;;;;;;;20.23;41.56;99983.63;106578;1282;60312;-82
2023/01/19 09:19:44;;;;;;;;;;;;;;;20.25;41.67;99983.82;106522;1282;59635;-83
2023/01/19 09:22:10;;;;;;;;;;;;;;;20.29;41.72;99979.96;106616;1282;60171;-83
2023/01/19 09:24:35;;;;;;;;;;;;;;;20.32;41.73;99972.89;106575;1282;59258;-83
2023/01/19 09:27:01;;;;;;;;;;;;;;;20.37;41.69;99971.59;106849;1282;59191;-83
2023/01/19 09:29:26;;;;;;;;;;;;;;;20.40;41.47;99965.08;106268;1282;61454;-82
2023/01/19 09:31:52;;;;;;;;;;;;;;;20.43;41.52;99959.48;106183;1284;62130;-82
2023/01/19 09:34:19;;;;;;;;;;;;;;;20.47;41.48;99958.67;106198;1282;61269;-82
2023/01/19 09:36:45;;;;;;;;;;;;;;;20.48;41.27;99961.05;106283;1284;61242;-82
2023/01/19 09:39:11;;;;;;;;;;;;;;;20.50;41.21;99955.16;106076;1282;61151;-82
2023/01/19 09:41:37;;;;;;;;;;;;;;;20.51;41.36;99950.96;106129;1284;61277;-83
2023/01/19 09:44:03;;;;;;;;;;;;;;;20.53;41.21;99949.56;106151;1282;62308;-82
2023/01/19 09:46:31;;;;;;;;;;;;;;;20.53;41.25;99947.39;106210;1282;61314;-83
2023/01/19 09:48:57;;;;;;;;;;;;;;;20.54;41.04;99950.55;106195;1282;59322;-83
2023/01/19 09:51:25;;;;;;;;;;;;;;;20.56;41.06;99943.48;106098;1282;59999;-82
2023/01/19 09:54:06;;;;;;;;;;;;;;;20.57;41.19;99940.27;106148;1282;59420;-83
2023/01/19 09:56:32;;;;;;;;;;;;;;;20.58;41.08;99938.21;106212;1282;62270;-83
2023/01/19 09:58:58;;;;;;;;;;;;;;;20.60;40.98;99935.21;106090;1283;72518;-83
2023/01/19 10:01:38;;;;;;;;;;;;;;;20.59;41.03;99932.27;106215;1283;60523;-83
2023/01/19 10:04:16;;;;;;;;;;;;;;;20.53;41.12;99921.20;106098;1282;60505;-84
2023/01/19 10:06:41;;;;;;;;;;;;;;;20.45;41.23;99917.52;106127;1283;61031;-84
2023/01/19 10:09:19;;;;;;;;;;;;;;;20.40;41.13;99910.61;106147;1287;61401;-83
2023/01/19 10:11:49;;;;;;;;;;;;;;;20.34;41.23;99906.45;106046;1283;76422;-83
2023/01/19 10:14:25;;;;;;;;;;;;;;;20.27;40.92;99904.70;106104;1282;59792;-84
2023/01/19 10:16:56;;;;;;;;;;;;;;;20.21;41.16;99902.52;106217;1284;61350;-83
2023/01/19 10:19:29;;;;;;;;;;;;;;;20.23;41.17;99904.25;106126;1282;73458;-83
2023/01/19 10:21:56;;;;;;;;;;;;;;;20.25;41.26;99899.11;106200;1282;75351;-83
2023/01/19 10:24:26;;;;;;;;;;;;;;;20.25;41.22;99893.95;106088;1287;61186;-83
2023/01/19 10:26:53;;;;;;;;;;;;;;;20.28;41.38;99895.17;106092;1282;61600;-83
2023/01/19 10:29:26;;;;;;;;;;;;;;;20.33;41.46;99887.11;106278;1282;59269;-83
2023/01/19 10:31:56;;;;;;;;;;;;;;;20.37;41.70;99878.50;106311;1282;75172;-84
2023/01/19 10:34:22;;;;;;;;;;;;;;;20.41;41.56;99878.54;106355;1282;59860;-83
2023/01/19 10:36:48;;;;;;;;;;;;;;;20.43;41.67;99874.20;106312;1282;59570;-83
2023/01/19 10:39:15;;;;;;;;;;;;;;;20.44;41.62;99873.98;106279;1282;59590;-83
2023/01/19 10:41:48;;;;;;;;;;;;;;;20.44;41.53;99873.62;106852;1283;59391;-83
2023/01/19 10:44:14;;;;;;;;;;;;;;;20.44;41.52;99876.50;106328;1282;61311;-84
2023/01/19 10:46:44;;;;;;;;;;;;;;;20.43;41.48;99871.22;106286;1283;59775;-83
2023/01/19 10:49:23;;;;;;;;;;;;;;;20.41;41.40;99862.27;106230;1282;72409;-83
2023/01/19 10:51:48;;;;;;;;;;;;;;;20.38;41.26;99850.89;106312;1282;75613;-82
2023/01/19 10:54:14;;;;;;;;;;;;;;;20.37;41.28;99857.11;106161;1282;61683;-84
2023/01/19 10:56:41;;;;;;;;;;;;;;;20.34;41.34;99858.20;106126;1282;59272;-83
2023/01/19 10:59:26;;;;;;;;;;;;;;;20.31;41.20;99858.31;106161;1282;61096;-85
2023/01/19 11:02:10;;;;;;;;;;;;;;;20.25;41.09;99855.52;106148;1283;74359;-83
2023/01/19 11:04:35;;;;;;;;;;;;;;;20.21;41.04;99860.52;106270;1282;61203;-83
2023/01/19 11:07:28;;;;;;;;;;;;;;;20.18;41.00;99853.83;106306;1282;60148;-83
2023/01/19 11:10:13;;;;;;;;;;;;;;;20.14;40.85;99855.95;106213;1284;73377;-82
2023/01/19 11:12:41;;;;;;;;;;;;;;;20.09;40.81;99852.91;106326;1282;73545;-83
2023/01/19 11:15:18;;;;;;;;;;;;;;;20.05;40.71;99851.08;106286;1282;60773;-83
2023/01/19 11:17:44;;;;;;;;;;;;;;;20.00;40.65;99851.57;106288;1282;62146;-83
2023/01/19 11:20:17;;;;;;;;;;;;;;;19.92;40.58;99853.44;106113;1284;61267;-83
2023/01/19 11:22:43;;;;;;;;;;;;;;;19.86;40.31;99854.64;106265;1282;74445;-83
2023/01/19 11:25:18;;;;;;;;;;;;;;;19.87;40.54;99854.54;106254;1282;61266;-84
2023/01/19 11:27:46;;;;;;;;;;;;;;;19.91;40.57;99849.26;106172;1282;61138;-86
2023/01/19 11:30:19;;;;;;;;;;;;;;;19.92;40.56;99847.71;105982;1282;72332;-84
2023/01/19 11:32:47;;;;;;;;;;;;;;;19.91;40.53;99852.02;106124;1282;75223;-83
2023/01/19 11:35:29;;;;;;;;;;;;;;;19.90;40.43;99854.26;106203;1282;61081;-83
2023/01/19 11:38:04;;;;;;;;;;;;;;;19.92;40.53;99852.71;106229;1282;60132;-83
2023/01/19 11:40:30;;;;;;;;;;;;;;;19.93;40.49;99852.76;106190;1282;73407;-83
2023/01/19 11:42:56;;;;;;;;;;;;;;;19.95;40.56;99849.27;106147;1282;74478;-84
2023/01/19 11:45:22;;;;;;;;;;;;;;;19.91;40.29;99854.34;106138;1282;60073;-84
2023/01/19 11:47:55;;;;;;;;;;;;;;;19.90;40.21;99850.20;105920;1282;62446;-83
2023/01/19 11:50:44;;;;;;;;;;;;;;;19.86;40.13;99848.91;106261;1282;72700;-83
2023/01/19 11:53:15;;;;;;;;;;;;;;;19.81;40.14;99843.95;106092;1282;75338;-83
2023/01/19 11:56:05;;;;;;;;;;;;;;;19.81;39.96;99844.85;105865;1283;61068;-84
2023/01/19 11:58:31;;;;;;;;;;;;;;;19.80;40.00;99847.05;106180;1282;60451;-83
2023/01/19 12:00:59;;;;;;;;;;;;;;;19.79;39.97;99848.59;106199;1282;71758;-83
2023/01/19 12:03:29;;;;;;;;;;;;;;;19.79;40.01;99851.41;106093;1283;74521;-83
2023/01/19 12:05:57;;;;;;;;;;;;;;;19.78;39.71;99854.38;106292;1282;59948;-83
2023/01/19 12:08:28;;;;;;;;;;;;;;;19.79;39.82;99852.15;106156;1282;61080;-83
2023/01/19 12:10:55;;;;;;;;;;;;;;;19.79;39.88;99852.80;106214;1282;73563;-84
2023/01/19 12:13:21;;;;;;;;;;;;;;;19.81;39.80;99846.24;106143;1282;60008;-83
2023/01/19 12:15:46;;;;;;;;;;;;;;;19.84;39.62;99844.23;106256;1282;59477;-84
2023/01/19 12:18:23;;;;;;;;;;;;;;;19.85;39.76;99840.27;106201;1282;61284;-83
2023/01/19 12:20:52;;;;;;;;;;;;;;;19.86;39.77;99837.51;106263;1282;72366;-83
2023/01/19 12:23:24;;;;;;;;;;;;;;;19.86;39.69;99835.16;106116;1287;75290;-83
2023/01/19 12:25:52;;;;;;;;;;;;;;;19.86;39.56;99836.94;106197;1282;61255;-84
2023/01/19 12:28:17;;;;;;;;;;;;;;;19.86;39.40;99834.44;106281;1282;61050;-83
2023/01/19 12:30:43;;;;;;;;;;;;;;;19.86;39.47;99837.98;106264;1282;61212;-83
2023/01/19 12:33:33;;;;;;;;;;;;;;;19.86;39.55;99844.10;106131;1282;61366;-82
2023/01/19 12:36:02;;;;;;;;;;;;;;;19.87;39.62;99850.26;106229;1282;61112;-82
2023/01/19 12:38:28;;;;;;;;;;;;;;;19.89;39.55;99852.40;106145;1282;61047;-83
2023/01/19 12:41:12;;;;;;;;;;;;;;;19.90;39.56;99851.02;106127;1283;59714;-82
2023/01/19 12:43:38;;;;;;;;;;;;;;;19.91;39.53;99853.66;106149;1282;75935;-83
2023/01/19 12:46:17;;;;;;;;;;;;;;;19.90;39.49;99854.94;106343;1282;60494;-83